sensor_id;sensor_type;location;lat;lon;timestamp;temperature;humidity
22526;DHT22;11429;50.842;4.386;2023-06-26T00:02:18;24.10;99.90
22526;DHT22;11429;50.842;4.386;2023-06-26T00:04:44;24.00;99.90
22526;DHT22;11429;50.842;4.386;2023-06-26T00:07:10;24.00;99.90
22526;DHT22;11429;50.842;4.386;2023-06-26T00:09:36;24.00;99.90
22526;DHT22;11429;50.842;4.386;2023-06-26T00:12:02;24.10;99.90
22526;DHT22;11429;50.842;4.386;2023-06-26T00:14:28;24.00;99.90
22526;DHT22;11429;50.842;4.386;2023-06-26T00:16:54;23.90;99.90
22526;DHT22;11429;50.842;4.386;2023-06-26T00:19:20;23.70;99.90
22526;DHT22;11429;50.842;4.386;2023-06-26T00:21:45;23.60;99.90
22526;DHT22;11429;50.842;4.386;2023-06-26T00:24:14;23.50;99.90
22526;DHT22;11429;50.842;4.386;2023-06-26T00:26:40;23.60;99.90
22526;DHT22;11429;50.842;4.386;2023-06-26T00:29:06;23.60;99.90
22526;DHT22;11429;50.842;4.386;2023-06-26T00:31:31;23.50;99.90
22526;DHT22;11429;50.842;4.386;2023-06-26T00:33:57;23.40;99.90
22526;DHT22;11429;50.842;4.386;2023-06-26T00:36:23;23.40;99.90
22526;DHT22;11429;50.842;4.386;2023-06-26T00:38:49;23.30;99.90
22526;DHT22;11429;50.842;4.386;2023-06-26T00:41:16;23.20;99.90
22526;DHT22;11429;50.842;4.386;2023-06-26T00:43:41;23.10;99.90
22526;DHT22;11429;50.842;4.386;2023-06-26T00:46:13;23.10;99.90
22526;DHT22;11429;50.842;4.386;2023-06-26T00:48:41;23.20;99.90
22526;DHT22;11429;50.842;4.386;2023-06-26T00:51:08;23.00;99.90
22526;DHT22;11429;50.842;4.386;2023-06-26T00:53:34;22.80;99.90
22526;DHT22;11429;50.842;4.386;2023-06-26T00:56:02;22.60;99.90
22526;DHT22;11429;50.842;4.386;2023-06-26T00:58:27;22.70;99.90
22526;DHT22;11429;50.842;4.386;2023-06-26T01:00:53;22.60;99.90
22526;DHT22;11429;50.842;4.386;2023-06-26T01:03:21;22.60;99.90
22526;DHT22;11429;50.842;4.386;2023-06-26T01:05:48;22.60;99.90
22526;DHT22;11429;50.842;4.386;2023-06-26T01:08:16;22.40;99.90
22526;DHT22;11429;50.842;4.386;2023-06-26T01:10:42;22.40;99.90
22526;DHT22;11429;50.842;4.386;2023-06-26T01:13:08;22.20;99.90
22526;DHT22;11429;50.842;4.386;2023-06-26T01:15:34;22.10;99.90
22526;DHT22;11429;50.842;4.386;2023-06-26T01:18:01;22.10;99.90
22526;DHT22;11429;50.842;4.386;2023-06-26T01:20:36;22.10;99.90
22526;DHT22;11429;50.842;4.386;2023-06-26T01:28:15;22.20;99.90
22526;DHT22;11429;50.842;4.386;2023-06-26T01:30:44;22.00;99.90
22526;DHT22;11429;50.842;4.386;2023-06-26T01:33:12;22.00;99.90
22526;DHT22;11429;50.842;4.386;2023-06-26T01:35:38;22.00;99.90
22526;DHT22;11429;50.842;4.386;2023-06-26T01:38:18;22.10;99.90
22526;DHT22;11429;50.842;4.386;2023-06-26T01:40:44;22.00;99.90
22526;DHT22;11429;50.842;4.386;2023-06-26T01:43:41;21.90;99.90
22526;DHT22;11429;50.842;4.386;2023-06-26T01:48:53;22.00;99.90
22526;DHT22;11429;50.842;4.386;2023-06-26T01:51:21;21.90;99.90
22526;DHT22;11429;50.842;4.386;2023-06-26T01:53:53;22.00;99.90
22526;DHT22;11429;50.842;4.386;2023-06-26T01:56:22;22.00;99.90
22526;DHT22;11429;50.842;4.386;2023-06-26T01:58:50;22.00;99.90
22526;DHT22;11429;50.842;4.386;2023-06-26T02:01:20;22.00;99.90
22526;DHT22;11429;50.842;4.386;2023-06-26T02:03:46;21.90;99.90
22526;DHT22;11429;50.842;4.386;2023-06-26T02:06:11;21.80;99.90
22526;DHT22;11429;50.842;4.386;2023-06-26T02:08:37;21.70;99.90
22526;DHT22;11429;50.842;4.386;2023-06-26T02:11:03;21.60;99.90
22526;DHT22;11429;50.842;4.386;2023-06-26T02:13:28;21.50;99.90
22526;DHT22;11429;50.842;4.386;2023-06-26T02:15:54;21.30;99.90
22526;DHT22;11429;50.842;4.386;2023-06-26T02:18:20;21.30;99.90
22526;DHT22;11429;50.842;4.386;2023-06-26T02:20:48;21.30;99.90
22526;DHT22;11429;50.842;4.386;2023-06-26T02:23:14;21.30;99.90
22526;DHT22;11429;50.842;4.386;2023-06-26T02:25:39;21.20;99.90
22526;DHT22;11429;50.842;4.386;2023-06-26T02:28:05;21.20;99.90
22526;DHT22;11429;50.842;4.386;2023-06-26T02:30:31;21.20;99.90
22526;DHT22;11429;50.842;4.386;2023-06-26T02:32:56;21.30;99.90
22526;DHT22;11429;50.842;4.386;2023-06-26T02:35:22;21.30;99.90
22526;DHT22;11429;50.842;4.386;2023-06-26T02:37:48;21.30;99.90
22526;DHT22;11429;50.842;4.386;2023-06-26T02:40:13;21.40;99.90
22526;DHT22;11429;50.842;4.386;2023-06-26T02:42:39;21.40;99.90
22526;DHT22;11429;50.842;4.386;2023-06-26T02:45:05;21.20;99.90
22526;DHT22;11429;50.842;4.386;2023-06-26T02:47:31;21.20;99.90
22526;DHT22;11429;50.842;4.386;2023-06-26T02:49:57;21.30;99.90
22526;DHT22;11429;50.842;4.386;2023-06-26T02:52:22;21.10;99.90
22526;DHT22;11429;50.842;4.386;2023-06-26T02:54:48;21.00;99.90
22526;DHT22;11429;50.842;4.386;2023-06-26T02:57:14;21.00;99.90
22526;DHT22;11429;50.842;4.386;2023-06-26T02:59:40;21.00;99.90
22526;DHT22;11429;50.842;4.386;2023-06-26T03:02:06;21.00;99.90
22526;DHT22;11429;50.842;4.386;2023-06-26T03:04:31;21.00;99.90
22526;DHT22;11429;50.842;4.386;2023-06-26T03:06:58;20.90;99.90
22526;DHT22;11429;50.842;4.386;2023-06-26T03:09:24;20.90;99.90
22526;DHT22;11429;50.842;4.386;2023-06-26T03:11:50;20.70;99.90
22526;DHT22;11429;50.842;4.386;2023-06-26T03:14:15;20.60;99.90
22526;DHT22;11429;50.842;4.386;2023-06-26T03:16:41;20.60;99.90
22526;DHT22;11429;50.842;4.386;2023-06-26T03:19:07;20.70;99.90
22526;DHT22;11429;50.842;4.386;2023-06-26T03:21:33;20.60;99.90
22526;DHT22;11429;50.842;4.386;2023-06-26T03:23:58;20.70;99.90
22526;DHT22;11429;50.842;4.386;2023-06-26T03:26:24;20.60;99.90
22526;DHT22;11429;50.842;4.386;2023-06-26T03:28:53;20.60;99.90
22526;DHT22;11429;50.842;4.386;2023-06-26T03:31:19;20.50;99.90
22526;DHT22;11429;50.842;4.386;2023-06-26T03:33:45;20.50;99.90
22526;DHT22;11429;50.842;4.386;2023-06-26T03:36:11;20.50;99.90
22526;DHT22;11429;50.842;4.386;2023-06-26T03:38:37;20.50;99.90
22526;DHT22;11429;50.842;4.386;2023-06-26T03:41:03;20.50;99.90
22526;DHT22;11429;50.842;4.386;2023-06-26T03:43:29;20.60;99.90
22526;DHT22;11429;50.842;4.386;2023-06-26T03:45:54;20.70;99.90
22526;DHT22;11429;50.842;4.386;2023-06-26T03:48:20;20.70;99.90
22526;DHT22;11429;50.842;4.386;2023-06-26T03:50:46;20.50;99.90
22526;DHT22;11429;50.842;4.386;2023-06-26T03:53:11;20.50;99.90
22526;DHT22;11429;50.842;4.386;2023-06-26T03:55:37;20.50;99.90
22526;DHT22;11429;50.842;4.386;2023-06-26T03:58:04;20.50;99.90
22526;DHT22;11429;50.842;4.386;2023-06-26T04:00:30;20.50;99.90
22526;DHT22;11429;50.842;4.386;2023-06-26T04:02:56;20.60;99.90
22526;DHT22;11429;50.842;4.386;2023-06-26T04:05:23;20.40;99.90
22526;DHT22;11429;50.842;4.386;2023-06-26T04:07:52;20.50;99.90
22526;DHT22;11429;50.842;4.386;2023-06-26T04:10:18;20.50;99.90
22526;DHT22;11429;50.842;4.386;2023-06-26T04:12:46;20.50;99.90
22526;DHT22;11429;50.842;4.386;2023-06-26T04:15:11;20.40;99.90
22526;DHT22;11429;50.842;4.386;2023-06-26T04:17:37;20.30;99.90
22526;DHT22;11429;50.842;4.386;2023-06-26T04:20:03;20.30;99.90
22526;DHT22;11429;50.842;4.386;2023-06-26T04:22:32;20.40;99.90
22526;DHT22;11429;50.842;4.386;2023-06-26T04:25:00;20.40;99.90
22526;DHT22;11429;50.842;4.386;2023-06-26T04:27:25;20.30;99.90
22526;DHT22;11429;50.842;4.386;2023-06-26T04:29:51;20.30;99.90
22526;DHT22;11429;50.842;4.386;2023-06-26T04:32:17;20.40;99.90
22526;DHT22;11429;50.842;4.386;2023-06-26T04:34:42;20.40;99.90
22526;DHT22;11429;50.842;4.386;2023-06-26T04:37:10;20.50;99.90
22526;DHT22;11429;50.842;4.386;2023-06-26T04:39:37;20.60;99.90
22526;DHT22;11429;50.842;4.386;2023-06-26T04:42:04;20.50;99.90
22526;DHT22;11429;50.842;4.386;2023-06-26T04:44:30;20.60;99.90
22526;DHT22;11429;50.842;4.386;2023-06-26T04:46:55;20.70;99.90
22526;DHT22;11429;50.842;4.386;2023-06-26T04:49:21;20.70;99.90
22526;DHT22;11429;50.842;4.386;2023-06-26T04:51:46;20.70;99.90
22526;DHT22;11429;50.842;4.386;2023-06-26T04:54:14;20.60;99.90
22526;DHT22;11429;50.842;4.386;2023-06-26T04:56:39;20.40;99.90
22526;DHT22;11429;50.842;4.386;2023-06-26T04:59:09;20.30;99.90
22526;DHT22;11429;50.842;4.386;2023-06-26T05:04:15;20.90;99.90
22526;DHT22;11429;50.842;4.386;2023-06-26T05:06:41;22.20;99.90
22526;DHT22;11429;50.842;4.386;2023-06-26T05:09:07;23.70;99.90
22526;DHT22;11429;50.842;4.386;2023-06-26T05:11:33;24.50;99.90
22526;DHT22;11429;50.842;4.386;2023-06-26T05:13:59;25.20;99.90
22526;DHT22;11429;50.842;4.386;2023-06-26T05:16:24;25.20;99.90
22526;DHT22;11429;50.842;4.386;2023-06-26T05:18:50;25.20;99.90
22526;DHT22;11429;50.842;4.386;2023-06-26T05:21:16;25.80;99.90
22526;DHT22;11429;50.842;4.386;2023-06-26T05:23:42;25.80;99.90
22526;DHT22;11429;50.842;4.386;2023-06-26T05:26:10;26.40;99.90
22526;DHT22;11429;50.842;4.386;2023-06-26T05:28:37;25.60;99.90
22526;DHT22;11429;50.842;4.386;2023-06-26T05:31:03;25.70;99.90
22526;DHT22;11429;50.842;4.386;2023-06-26T05:33:31;26.30;99.90
22526;DHT22;11429;50.842;4.386;2023-06-26T05:36:00;27.00;99.90
22526;DHT22;11429;50.842;4.386;2023-06-26T05:38:28;26.80;99.90
22526;DHT22;11429;50.842;4.386;2023-06-26T05:40:54;27.50;99.90
22526;DHT22;11429;50.842;4.386;2023-06-26T05:43:20;27.40;99.90
22526;DHT22;11429;50.842;4.386;2023-06-26T05:45:48;27.40;99.90
22526;DHT22;11429;50.842;4.386;2023-06-26T05:48:14;27.10;99.90
22526;DHT22;11429;50.842;4.386;2023-06-26T05:50:40;27.50;99.90
22526;DHT22;11429;50.842;4.386;2023-06-26T05:53:08;27.30;99.90
22526;DHT22;11429;50.842;4.386;2023-06-26T05:55:34;27.80;99.90
22526;DHT22;11429;50.842;4.386;2023-06-26T05:58:01;28.50;99.90
22526;DHT22;11429;50.842;4.386;2023-06-26T06:00:28;28.30;99.90
22526;DHT22;11429;50.842;4.386;2023-06-26T06:02:54;29.00;99.90
22526;DHT22;11429;50.842;4.386;2023-06-26T06:05:23;28.80;99.90
22526;DHT22;11429;50.842;4.386;2023-06-26T06:07:49;28.30;99.90
22526;DHT22;11429;50.842;4.386;2023-06-26T06:10:15;28.50;99.90
22526;DHT22;11429;50.842;4.386;2023-06-26T06:12:41;28.70;99.90
22526;DHT22;11429;50.842;4.386;2023-06-26T06:15:07;29.00;99.90
22526;DHT22;11429;50.842;4.386;2023-06-26T06:17:33;29.50;99.90
22526;DHT22;11429;50.842;4.386;2023-06-26T06:19:59;28.80;99.90
22526;DHT22;11429;50.842;4.386;2023-06-26T06:22:26;29.60;99.90
22526;DHT22;11429;50.842;4.386;2023-06-26T06:24:52;29.50;99.90
22526;DHT22;11429;50.842;4.386;2023-06-26T06:27:18;28.40;99.90
22526;DHT22;11429;50.842;4.386;2023-06-26T06:29:44;29.00;99.90
22526;DHT22;11429;50.842;4.386;2023-06-26T06:32:10;29.50;99.90
22526;DHT22;11429;50.842;4.386;2023-06-26T06:34:35;28.90;99.90
22526;DHT22;11429;50.842;4.386;2023-06-26T06:37:02;29.80;99.90
22526;DHT22;11429;50.842;4.386;2023-06-26T06:39:28;29.70;99.90
22526;DHT22;11429;50.842;4.386;2023-06-26T06:41:54;29.60;99.90
22526;DHT22;11429;50.842;4.386;2023-06-26T06:44:20;30.30;99.90
22526;DHT22;11429;50.842;4.386;2023-06-26T06:46:47;30.30;99.90
22526;DHT22;11429;50.842;4.386;2023-06-26T06:49:13;29.70;99.90
22526;DHT22;11429;50.842;4.386;2023-06-26T06:51:39;29.30;99.90
22526;DHT22;11429;50.842;4.386;2023-06-26T06:54:05;29.00;99.90
22526;DHT22;11429;50.842;4.386;2023-06-26T06:56:30;29.00;99.90
22526;DHT22;11429;50.842;4.386;2023-06-26T06:58:56;29.00;99.90
22526;DHT22;11429;50.842;4.386;2023-06-26T07:01:22;29.30;99.90
22526;DHT22;11429;50.842;4.386;2023-06-26T07:03:48;28.80;99.90
22526;DHT22;11429;50.842;4.386;2023-06-26T07:06:14;30.00;99.90
22526;DHT22;11429;50.842;4.386;2023-06-26T07:08:39;30.50;99.90
22526;DHT22;11429;50.842;4.386;2023-06-26T07:11:05;30.50;99.90
22526;DHT22;11429;50.842;4.386;2023-06-26T07:13:31;30.30;99.90
22526;DHT22;11429;50.842;4.386;2023-06-26T07:15:57;29.80;99.90
22526;DHT22;11429;50.842;4.386;2023-06-26T07:18:22;29.40;99.90
22526;DHT22;11429;50.842;4.386;2023-06-26T07:20:48;29.30;99.90
22526;DHT22;11429;50.842;4.386;2023-06-26T07:23:14;29.40;99.90
22526;DHT22;11429;50.842;4.386;2023-06-26T07:25:39;29.40;99.90
22526;DHT22;11429;50.842;4.386;2023-06-26T07:28:13;28.90;99.90
22526;DHT22;11429;50.842;4.386;2023-06-26T07:30:39;29.20;99.90
22526;DHT22;11429;50.842;4.386;2023-06-26T07:33:04;30.30;99.90
22526;DHT22;11429;50.842;4.386;2023-06-26T07:38:06;31.00;99.90
22526;DHT22;11429;50.842;4.386;2023-06-26T07:40:31;31.00;99.80
22526;DHT22;11429;50.842;4.386;2023-06-26T07:42:57;30.60;99.90
22526;DHT22;11429;50.842;4.386;2023-06-26T07:45:24;30.60;99.90
22526;DHT22;11429;50.842;4.386;2023-06-26T07:47:49;30.30;99.80
22526;DHT22;11429;50.842;4.386;2023-06-26T07:50:15;30.50;99.60
22526;DHT22;11429;50.842;4.386;2023-06-26T07:52:45;31.20;99.40
22526;DHT22;11429;50.842;4.386;2023-06-26T07:55:11;31.90;98.70
22526;DHT22;11429;50.842;4.386;2023-06-26T07:57:36;32.20;97.70
22526;DHT22;11429;50.842;4.386;2023-06-26T08:00:02;31.20;98.10
22526;DHT22;11429;50.842;4.386;2023-06-26T08:02:29;30.60;98.40
22526;DHT22;11429;50.842;4.386;2023-06-26T08:04:54;30.20;98.70
22526;DHT22;11429;50.842;4.386;2023-06-26T08:07:20;30.80;98.40
22526;DHT22;11429;50.842;4.386;2023-06-26T08:09:46;30.20;98.90
22526;DHT22;11429;50.842;4.386;2023-06-26T08:12:11;30.70;99.50
22526;DHT22;11429;50.842;4.386;2023-06-26T08:14:37;31.10;99.00
22526;DHT22;11429;50.842;4.386;2023-06-26T08:17:03;30.90;98.60
22526;DHT22;11429;50.842;4.386;2023-06-26T08:19:28;31.20;99.20
22526;DHT22;11429;50.842;4.386;2023-06-26T08:21:54;30.90;98.40
22526;DHT22;11429;50.842;4.386;2023-06-26T08:24:20;30.80;98.50
22526;DHT22;11429;50.842;4.386;2023-06-26T08:26:46;30.90;97.80
22526;DHT22;11429;50.842;4.386;2023-06-26T08:29:12;30.40;98.00
22526;DHT22;11429;50.842;4.386;2023-06-26T08:31:39;30.80;97.20
22526;DHT22;11429;50.842;4.386;2023-06-26T08:34:05;31.70;97.00
22526;DHT22;11429;50.842;4.386;2023-06-26T08:36:31;31.90;96.40
22526;DHT22;11429;50.842;4.386;2023-06-26T08:38:58;31.20;96.80
22526;DHT22;11429;50.842;4.386;2023-06-26T08:41:24;30.70;96.90
22526;DHT22;11429;50.842;4.386;2023-06-26T08:43:50;29.70;98.20
22526;DHT22;11429;50.842;4.386;2023-06-26T08:46:18;29.40;98.90
22526;DHT22;11429;50.842;4.386;2023-06-26T08:48:48;29.20;99.40
22526;DHT22;11429;50.842;4.386;2023-06-26T08:51:17;30.00;98.60
22526;DHT22;11429;50.842;4.386;2023-06-26T08:53:52;30.30;98.50
22526;DHT22;11429;50.842;4.386;2023-06-26T08:56:19;30.60;97.50
22526;DHT22;11429;50.842;4.386;2023-06-26T08:58:47;30.30;97.20
22526;DHT22;11429;50.842;4.386;2023-06-26T09:01:13;30.40;97.20
22526;DHT22;11429;50.842;4.386;2023-06-26T09:03:39;30.00;97.90
22526;DHT22;11429;50.842;4.386;2023-06-26T09:06:07;30.20;97.30
22526;DHT22;11429;50.842;4.386;2023-06-26T09:08:32;30.60;97.20
22526;DHT22;11429;50.842;4.386;2023-06-26T09:10:58;32.20;94.90
22526;DHT22;11429;50.842;4.386;2023-06-26T09:13:24;32.80;95.00
22526;DHT22;11429;50.842;4.386;2023-06-26T09:15:53;32.50;94.60
22526;DHT22;11429;50.842;4.386;2023-06-26T09:18:21;32.00;95.00
22526;DHT22;11429;50.842;4.386;2023-06-26T09:20:47;30.70;95.80
22526;DHT22;11429;50.842;4.386;2023-06-26T09:23:13;30.50;96.20
22526;DHT22;11429;50.842;4.386;2023-06-26T09:25:40;30.10;96.20
22526;DHT22;11429;50.842;4.386;2023-06-26T09:28:06;31.10;95.90
22526;DHT22;11429;50.842;4.386;2023-06-26T09:30:34;31.70;95.20
22526;DHT22;11429;50.842;4.386;2023-06-26T09:33:14;30.10;95.80
22526;DHT22;11429;50.842;4.386;2023-06-26T09:35:41;30.00;95.60
22526;DHT22;11429;50.842;4.386;2023-06-26T09:38:07;30.60;95.50
22526;DHT22;11429;50.842;4.386;2023-06-26T09:40:33;30.10;96.00
22526;DHT22;11429;50.842;4.386;2023-06-26T09:43:13;30.30;95.70
22526;DHT22;11429;50.842;4.386;2023-06-26T09:45:39;30.70;94.70
22526;DHT22;11429;50.842;4.386;2023-06-26T09:48:06;30.80;94.40
22526;DHT22;11429;50.842;4.386;2023-06-26T09:50:34;31.00;93.60
22526;DHT22;11429;50.842;4.386;2023-06-26T09:53:10;31.60;92.70
22526;DHT22;11429;50.842;4.386;2023-06-26T09:55:36;31.30;92.90
22526;DHT22;11429;50.842;4.386;2023-06-26T09:58:03;31.10;93.10
22526;DHT22;11429;50.842;4.386;2023-06-26T10:00:33;31.70;92.70
22526;DHT22;11429;50.842;4.386;2023-06-26T10:02:59;31.50;93.00
22526;DHT22;11429;50.842;4.386;2023-06-26T10:05:26;31.10;93.90
22526;DHT22;11429;50.842;4.386;2023-06-26T10:07:53;30.00;94.80
22526;DHT22;11429;50.842;4.386;2023-06-26T10:10:22;29.70;95.10
22526;DHT22;11429;50.842;4.386;2023-06-26T10:12:54;30.70;94.10
22526;DHT22;11429;50.842;4.386;2023-06-26T10:15:23;31.00;93.30
22526;DHT22;11429;50.842;4.386;2023-06-26T10:17:50;32.30;92.20
22526;DHT22;11429;50.842;4.386;2023-06-26T10:20:17;32.40;91.40
22526;DHT22;11429;50.842;4.386;2023-06-26T10:22:47;31.70;91.40
22526;DHT22;11429;50.842;4.386;2023-06-26T10:25:19;31.80;90.90
22526;DHT22;11429;50.842;4.386;2023-06-26T10:27:52;31.90;91.20
22526;DHT22;11429;50.842;4.386;2023-06-26T10:30:22;31.00;91.40
22526;DHT22;11429;50.842;4.386;2023-06-26T10:32:49;31.00;91.50
22526;DHT22;11429;50.842;4.386;2023-06-26T10:35:16;30.60;91.80
22526;DHT22;11429;50.842;4.386;2023-06-26T10:37:49;30.60;92.10
22526;DHT22;11429;50.842;4.386;2023-06-26T10:40:22;29.90;92.70
22526;DHT22;11429;50.842;4.386;2023-06-26T10:42:50;29.70;93.00
22526;DHT22;11429;50.842;4.386;2023-06-26T10:45:19;29.00;93.40
22526;DHT22;11429;50.842;4.386;2023-06-26T10:47:47;29.80;93.10
22526;DHT22;11429;50.842;4.386;2023-06-26T10:55:32;30.40;91.90
22526;DHT22;11429;50.842;4.386;2023-06-26T10:57:58;30.30;91.50
22526;DHT22;11429;50.842;4.386;2023-06-26T11:00:23;29.60;92.60
22526;DHT22;11429;50.842;4.386;2023-06-26T11:02:52;28.80;93.40
22526;DHT22;11429;50.842;4.386;2023-06-26T11:05:29;28.80;93.40
22526;DHT22;11429;50.842;4.386;2023-06-26T11:08:21;29.50;92.70
22526;DHT22;11429;50.842;4.386;2023-06-26T11:11:07;29.20;93.70
22526;DHT22;11429;50.842;4.386;2023-06-26T11:13:34;29.10;93.20
22526;DHT22;11429;50.842;4.386;2023-06-26T11:16:02;29.00;94.00
22526;DHT22;11429;50.842;4.386;2023-06-26T11:18:27;28.30;94.50
22526;DHT22;11429;50.842;4.386;2023-06-26T11:20:53;27.30;95.30
22526;DHT22;11429;50.842;4.386;2023-06-26T11:23:22;27.30;95.90
22526;DHT22;11429;50.842;4.386;2023-06-26T11:25:50;27.70;95.70
22526;DHT22;11429;50.842;4.386;2023-06-26T11:28:15;27.20;95.70
22526;DHT22;11429;50.842;4.386;2023-06-26T11:30:41;26.50;96.30
22526;DHT22;11429;50.842;4.386;2023-06-26T11:33:08;26.10;96.90
22526;DHT22;11429;50.842;4.386;2023-06-26T11:35:34;25.90;97.10
22526;DHT22;11429;50.842;4.386;2023-06-26T11:38:01;25.50;97.80
22526;DHT22;11429;50.842;4.386;2023-06-26T11:40:32;25.90;98.00
22526;DHT22;11429;50.842;4.386;2023-06-26T11:42:59;25.90;97.50
22526;DHT22;11429;50.842;4.386;2023-06-26T11:45:29;25.70;96.90
22526;DHT22;11429;50.842;4.386;2023-06-26T11:47:56;26.10;97.60
22526;DHT22;11429;50.842;4.386;2023-06-26T11:50:23;27.40;95.50
22526;DHT22;11429;50.842;4.386;2023-06-26T11:52:56;27.50;94.80
22526;DHT22;11429;50.842;4.386;2023-06-26T11:55:23;27.00;93.90
22526;DHT22;11429;50.842;4.386;2023-06-26T11:57:58;26.70;95.40
22526;DHT22;11429;50.842;4.386;2023-06-26T12:00:24;26.30;95.30
22526;DHT22;11429;50.842;4.386;2023-06-26T12:02:50;26.70;95.00
22526;DHT22;11429;50.842;4.386;2023-06-26T12:05:17;27.30;94.40
22526;DHT22;11429;50.842;4.386;2023-06-26T12:07:44;28.10;93.90
22526;DHT22;11429;50.842;4.386;2023-06-26T12:10:11;27.90;94.00
22526;DHT22;11429;50.842;4.386;2023-06-26T12:12:38;27.50;94.20
22526;DHT22;11429;50.842;4.386;2023-06-26T12:15:06;27.60;93.80
22526;DHT22;11429;50.842;4.386;2023-06-26T12:17:32;27.70;93.50
22526;DHT22;11429;50.842;4.386;2023-06-26T12:19:57;28.10;92.50
22526;DHT22;11429;50.842;4.386;2023-06-26T12:22:23;28.40;92.70
22526;DHT22;11429;50.842;4.386;2023-06-26T12:24:49;28.60;92.10
22526;DHT22;11429;50.842;4.386;2023-06-26T12:27:17;28.60;91.70
22526;DHT22;11429;50.842;4.386;2023-06-26T12:29:53;28.40;92.60
22526;DHT22;11429;50.842;4.386;2023-06-26T12:32:21;28.00;91.40
22526;DHT22;11429;50.842;4.386;2023-06-26T12:34:51;27.30;92.30
22526;DHT22;11429;50.842;4.386;2023-06-26T12:37:17;27.40;92.30
22526;DHT22;11429;50.842;4.386;2023-06-26T12:39:47;27.60;92.10
22526;DHT22;11429;50.842;4.386;2023-06-26T12:42:15;27.90;92.60
22526;DHT22;11429;50.842;4.386;2023-06-26T12:44:41;27.70;92.60
22526;DHT22;11429;50.842;4.386;2023-06-26T12:47:07;27.50;93.10
22526;DHT22;11429;50.842;4.386;2023-06-26T12:49:35;27.20;93.10
22526;DHT22;11429;50.842;4.386;2023-06-26T12:52:02;27.20;93.40
22526;DHT22;11429;50.842;4.386;2023-06-26T12:54:28;26.90;93.90
22526;DHT22;11429;50.842;4.386;2023-06-26T12:56:54;27.20;93.30
22526;DHT22;11429;50.842;4.386;2023-06-26T12:59:21;27.50;93.20
22526;DHT22;11429;50.842;4.386;2023-06-26T13:01:47;26.90;94.00
22526;DHT22;11429;50.842;4.386;2023-06-26T13:04:13;26.50;94.50
22526;DHT22;11429;50.842;4.386;2023-06-26T13:06:39;26.50;94.30
22526;DHT22;11429;50.842;4.386;2023-06-26T13:09:04;26.50;94.30
22526;DHT22;11429;50.842;4.386;2023-06-26T13:11:31;26.20;94.70
22526;DHT22;11429;50.842;4.386;2023-06-26T13:13:58;26.20;94.40
22526;DHT22;11429;50.842;4.386;2023-06-26T13:16:24;26.20;94.70
22526;DHT22;11429;50.842;4.386;2023-06-26T13:18:49;26.30;94.50
22526;DHT22;11429;50.842;4.386;2023-06-26T13:21:16;26.40;94.40
22526;DHT22;11429;50.842;4.386;2023-06-26T13:23:43;26.40;94.40
22526;DHT22;11429;50.842;4.386;2023-06-26T13:26:09;26.20;95.10
22526;DHT22;11429;50.842;4.386;2023-06-26T13:28:36;26.70;94.80
22526;DHT22;11429;50.842;4.386;2023-06-26T13:31:02;27.10;94.20
22526;DHT22;11429;50.842;4.386;2023-06-26T13:33:28;26.90;94.50
22526;DHT22;11429;50.842;4.386;2023-06-26T13:35:54;26.70;94.70
22526;DHT22;11429;50.842;4.386;2023-06-26T13:38:20;27.00;94.50
22526;DHT22;11429;50.842;4.386;2023-06-26T13:40:54;26.90;94.10
22526;DHT22;11429;50.842;4.386;2023-06-26T13:43:21;27.10;93.80
22526;DHT22;11429;50.842;4.386;2023-06-26T13:45:48;27.20;93.60
22526;DHT22;11429;50.842;4.386;2023-06-26T13:48:13;26.90;94.40
22526;DHT22;11429;50.842;4.386;2023-06-26T13:50:39;27.00;94.50
22526;DHT22;11429;50.842;4.386;2023-06-26T13:53:05;27.10;94.90
22526;DHT22;11429;50.842;4.386;2023-06-26T13:55:32;27.60;94.20
22526;DHT22;11429;50.842;4.386;2023-06-26T13:57:58;27.40;94.30
22526;DHT22;11429;50.842;4.386;2023-06-26T14:00:24;26.90;94.30
22526;DHT22;11429;50.842;4.386;2023-06-26T14:02:51;26.50;94.40
22526;DHT22;11429;50.842;4.386;2023-06-26T14:05:17;26.30;94.20
22526;DHT22;11429;50.842;4.386;2023-06-26T14:07:44;26.20;94.60
22526;DHT22;11429;50.842;4.386;2023-06-26T14:10:10;25.90;94.50
22526;DHT22;11429;50.842;4.386;2023-06-26T14:12:35;26.20;94.00
22526;DHT22;11429;50.842;4.386;2023-06-26T14:15:01;26.80;94.20
22526;DHT22;11429;50.842;4.386;2023-06-26T14:17:27;27.10;93.20
22526;DHT22;11429;50.842;4.386;2023-06-26T14:19:53;27.10;92.60
22526;DHT22;11429;50.842;4.386;2023-06-26T14:22:18;27.10;92.50
22526;DHT22;11429;50.842;4.386;2023-06-26T14:24:44;27.00;92.00
22526;DHT22;11429;50.842;4.386;2023-06-26T14:27:10;26.70;92.50
22526;DHT22;11429;50.842;4.386;2023-06-26T14:29:36;27.10;92.10
22526;DHT22;11429;50.842;4.386;2023-06-26T14:32:03;27.20;91.50
22526;DHT22;11429;50.842;4.386;2023-06-26T14:34:29;27.30;92.40
22526;DHT22;11429;50.842;4.386;2023-06-26T14:36:55;26.80;93.50
22526;DHT22;11429;50.842;4.386;2023-06-26T14:39:21;26.60;94.20
22526;DHT22;11429;50.842;4.386;2023-06-26T14:41:46;26.40;94.30
22526;DHT22;11429;50.842;4.386;2023-06-26T14:44:15;26.30;93.90
22526;DHT22;11429;50.842;4.386;2023-06-26T14:46:41;26.10;94.20
22526;DHT22;11429;50.842;4.386;2023-06-26T14:49:07;26.10;94.90
22526;DHT22;11429;50.842;4.386;2023-06-26T14:51:33;26.10;94.10
22526;DHT22;11429;50.842;4.386;2023-06-26T14:54:00;26.10;94.20
22526;DHT22;11429;50.842;4.386;2023-06-26T14:56:25;25.80;94.00
22526;DHT22;11429;50.842;4.386;2023-06-26T14:58:52;26.10;94.20
22526;DHT22;11429;50.842;4.386;2023-06-26T15:01:21;25.90;95.10
22526;DHT22;11429;50.842;4.386;2023-06-26T15:03:47;25.70;95.20
22526;DHT22;11429;50.842;4.386;2023-06-26T15:06:13;25.70;95.20
22526;DHT22;11429;50.842;4.386;2023-06-26T15:08:39;25.80;95.20
22526;DHT22;11429;50.842;4.386;2023-06-26T15:11:05;25.80;95.50
22526;DHT22;11429;50.842;4.386;2023-06-26T15:13:31;25.80;95.50
22526;DHT22;11429;50.842;4.386;2023-06-26T15:15:57;25.80;95.70
22526;DHT22;11429;50.842;4.386;2023-06-26T15:18:22;25.80;95.20
22526;DHT22;11429;50.842;4.386;2023-06-26T15:20:48;25.90;95.20
22526;DHT22;11429;50.842;4.386;2023-06-26T15:23:14;26.00;95.20
22526;DHT22;11429;50.842;4.386;2023-06-26T15:25:39;25.60;95.50
22526;DHT22;11429;50.842;4.386;2023-06-26T15:28:06;25.50;96.00
22526;DHT22;11429;50.842;4.386;2023-06-26T15:30:32;25.70;96.00
22526;DHT22;11429;50.842;4.386;2023-06-26T15:32:58;26.10;95.80
22526;DHT22;11429;50.842;4.386;2023-06-26T15:35:24;26.00;95.90
22526;DHT22;11429;50.842;4.386;2023-06-26T15:37:50;25.50;96.20
22526;DHT22;11429;50.842;4.386;2023-06-26T15:40:15;25.10;96.80
22526;DHT22;11429;50.842;4.386;2023-06-26T15:42:49;25.20;97.00
22526;DHT22;11429;50.842;4.386;2023-06-26T15:45:15;25.60;96.50
22526;DHT22;11429;50.842;4.386;2023-06-26T15:47:43;25.60;96.70